createdAt,value
2023-02-28T00:05:02.084Z,64.85
2023-02-28T00:10:07.328Z,65.08
2023-02-28T00:15:11.470Z,65.15
2023-02-28T00:20:14.299Z,64.53
2023-02-28T00:25:19.403Z,65.38
2023-02-28T00:30:23.868Z,65.56
2023-02-28T00:35:25.370Z,65.92
2023-02-28T00:40:26.839Z,65.83
2023-02-28T00:45:28.254Z,65.95
2023-02-28T00:50:29.851Z,65.53
2023-02-28T00:55:31.310Z,66.46
2023-02-28T01:00:32.745Z,66.08
2023-02-28T01:05:34.307Z,66.64
2023-02-28T01:10:37.503Z,66.36
2023-02-28T01:15:46.660Z,66.61
2023-02-28T01:20:49.247Z,66.42
2023-02-28T01:25:51.974Z,66.93
2023-02-28T01:30:53.458Z,67.28
2023-02-28T01:36:07.385Z,67.00
2023-02-28T01:41:11.497Z,66.26
2023-02-28T01:46:13.938Z,67.16
2023-02-28T01:51:25.356Z,66.80
2023-02-28T01:56:30.447Z,67.20
2023-02-28T02:01:32.652Z,67.37
2023-02-28T02:06:41.621Z,67.37
2023-02-28T02:11:45.594Z,67.12
2023-02-28T02:16:54.898Z,67.94
2023-02-28T02:22:25.709Z,67.93
2023-02-28T02:27:40.980Z,67.75
2023-02-28T02:33:05.515Z,68.34
2023-02-28T02:38:33.171Z,68.17
2023-02-28T02:43:41.720Z,68.24
2023-02-28T02:48:44.866Z,68.79
2023-02-28T02:53:50.906Z,68.13
2023-02-28T02:58:57.362Z,68.46
2023-02-28T03:04:02.713Z,68.85
2023-02-28T03:09:05.497Z,69.19
2023-02-28T03:14:27.112Z,68.96
2023-02-28T03:19:37.613Z,68.84
2023-02-28T03:24:47.690Z,68.39
2023-02-28T03:29:57.612Z,68.51
2023-02-28T03:35:07.308Z,67.80
2023-02-28T03:40:16.365Z,68.32
2023-02-28T03:45:23.896Z,68.29
2023-02-28T03:50:35.902Z,68.67
2023-02-28T03:55:45.430Z,68.69
2023-02-28T04:00:50.411Z,69.24
2023-02-28T04:05:54.582Z,68.83
2023-02-28T04:11:05.475Z,69.82
2023-02-28T04:16:18.724Z,69.22
2023-02-28T04:21:27.901Z,69.76
2023-02-28T04:26:31.832Z,70.54
2023-02-28T04:31:33.729Z,69.97
2023-02-28T04:36:35.534Z,70.50
2023-02-28T04:41:37.154Z,70.23
2023-02-28T04:46:38.928Z,71.35
2023-02-28T04:51:41.532Z,71.05
2023-02-28T04:56:43.029Z,70.74
2023-02-28T05:01:47.884Z,70.66
2023-02-28T05:06:49.320Z,70.60
2023-02-28T05:11:50.747Z,71.13
2023-02-28T05:16:52.188Z,71.10
2023-02-28T05:21:55.774Z,72.12
2023-02-28T05:26:57.218Z,71.12
2023-02-28T05:31:58.673Z,71.38
2023-02-28T05:37:00.247Z,71.07
2023-02-28T05:42:01.672Z,71.36
2023-02-28T05:47:03.242Z,72.02
2023-02-28T05:52:04.886Z,72.07
2023-02-28T05:57:15.409Z,72.10
2023-02-28T06:02:20.485Z,71.35
2023-02-28T06:07:23.480Z,71.40
2023-02-28T06:12:24.966Z,71.61
2023-02-28T06:17:26.469Z,72.25
2023-02-28T06:22:28.017Z,72.65
2023-02-28T06:27:29.447Z,71.52
2023-02-28T06:32:30.876Z,72.02
2023-02-28T06:37:33.115Z,71.97
2023-02-28T06:42:34.627Z,71.52
2023-02-28T06:47:41.390Z,71.19
2023-02-28T06:52:42.886Z,70.81
2023-02-28T06:57:44.288Z,71.46
2023-02-28T07:02:45.711Z,71.30
2023-02-28T07:07:48.241Z,70.72
2023-02-28T07:12:49.672Z,70.82
2023-02-28T07:17:51.160Z,70.18
2023-02-28T07:22:57.314Z,69.21
2023-02-28T07:28:00.109Z,68.95
2023-02-28T07:33:01.625Z,69.29
2023-02-28T07:38:03.968Z,68.62
2023-02-28T07:43:05.542Z,68.47
2023-02-28T07:48:07.062Z,67.71
2023-02-28T07:53:08.554Z,67.84
2023-02-28T07:58:09.979Z,67.42
2023-02-28T08:03:14.505Z,67.28
2023-02-28T08:08:17.706Z,67.03
2023-02-28T08:13:19.108Z,65.97
2023-02-28T08:18:20.530Z,66.51
2023-02-28T08:23:21.961Z,66.50
2023-02-28T08:28:26.705Z,65.67
2023-02-28T08:33:29.178Z,66.08
2023-02-28T08:38:30.690Z,66.57
2023-02-28T08:43:32.627Z,66.04
2023-02-28T08:48:38.433Z,65.44
2023-02-28T08:53:41.251Z,65.16
2023-02-28T08:58:42.681Z,64.04
2023-02-28T09:03:47.470Z,64.50
2023-02-28T09:08:49.243Z,63.81
2023-02-28T09:13:50.661Z,63.17
2023-02-28T09:18:52.156Z,63.24
2023-02-28T09:23:53.741Z,63.39
2023-02-28T09:28:55.934Z,63.31
2023-02-28T09:33:58.362Z,62.24
2023-02-28T09:38:59.841Z,61.90
2023-02-28T09:44:05.179Z,61.38
2023-02-28T09:49:13.376Z,60.35
2023-02-28T09:54:19.874Z,59.97
2023-02-28T09:59:36.489Z,59.58
2023-02-28T10:04:52.435Z,59.62
2023-02-28T10:09:58.452Z,60.21
2023-02-28T10:15:00.918Z,59.72
2023-02-28T10:20:12.604Z,59.22
2023-02-28T10:25:29.858Z,58.94
2023-02-28T10:30:31.938Z,59.60
2023-02-28T10:35:34.795Z,58.10
2023-02-28T10:40:36.908Z,59.40
2023-02-28T10:45:38.441Z,58.87
2023-02-28T10:50:53.271Z,58.49
2023-02-28T10:56:05.407Z,58.73
2023-02-28T11:01:15.081Z,58.17
2023-02-28T11:06:21.993Z,58.28
2023-02-28T11:11:29.631Z,58.37
2023-02-28T11:16:39.244Z,57.29
2023-02-28T11:21:49.010Z,57.07
2023-02-28T11:26:50.919Z,56.46
2023-02-28T11:32:19.729Z,55.28
2023-02-28T11:37:21.396Z,54.63
2023-02-28T11:42:36.657Z,54.28
2023-02-28T11:48:10.387Z,54.70
2023-02-28T11:53:23.066Z,54.28
2023-02-28T11:58:42.722Z,52.68
2023-02-28T12:03:59.308Z,51.21
2023-02-28T12:09:15.962Z,52.19
2023-02-28T12:14:20.274Z,51.92
2023-02-28T12:19:36.986Z,51.74
2023-02-28T12:25:15.869Z,52.17
2023-02-28T12:30:26.071Z,52.19
2023-02-28T12:35:34.546Z,52.21
2023-02-28T12:40:48.449Z,51.55
2023-02-28T12:46:18.783Z,51.30
2023-02-28T12:51:20.827Z,51.43
2023-02-28T12:56:48.709Z,51.45
2023-02-28T13:02:19.846Z,51.99
2023-02-28T13:07:34.346Z,51.72
2023-02-28T13:12:36.507Z,51.70
2023-02-28T13:17:39.674Z,51.79
2023-02-28T13:22:46.634Z,51.27
2023-02-28T13:27:51.697Z,50.20
2023-02-28T13:33:31.509Z,50.02
2023-02-28T13:39:05.100Z,50.71
2023-02-28T13:44:08.493Z,50.84
2023-02-28T13:49:32.982Z,50.38
2023-02-28T13:54:56.833Z,50.09
2023-02-28T14:00:24.539Z,50.44
2023-02-28T14:05:27.788Z,50.51
2023-02-28T14:10:36.959Z,51.29
2023-02-28T14:15:44.431Z,50.78
2023-02-28T14:20:47.776Z,51.56
2023-02-28T14:26:12.624Z,50.77
2023-02-28T14:31:26.461Z,50.65
2023-02-28T14:36:33.402Z,50.96
2023-02-28T14:41:40.786Z,51.95
2023-02-28T14:46:44.521Z,51.34
2023-02-28T14:51:48.336Z,51.35
2023-02-28T14:56:51.170Z,51.11
2023-02-28T15:01:52.725Z,51.22
2023-02-28T15:07:10.845Z,51.44
2023-02-28T15:12:16.248Z,51.14
2023-02-28T15:17:25.956Z,51.95
2023-02-28T15:22:37.296Z,51.61
2023-02-28T15:27:46.222Z,51.59
2023-02-28T15:33:23.600Z,51.67
2023-02-28T15:38:27.890Z,52.13
2023-02-28T15:43:34.819Z,51.85
2023-02-28T15:48:53.557Z,52.78
2023-02-28T15:54:12.003Z,52.80
2023-02-28T15:59:23.732Z,52.45
2023-02-28T16:04:30.583Z,53.11
2023-02-28T16:09:34.975Z,53.21
2023-02-28T16:14:39.034Z,53.18
2023-02-28T16:19:40.448Z,53.24
2023-02-28T16:24:42.494Z,53.41
2023-02-28T16:29:46.249Z,53.54
2023-02-28T16:34:47.766Z,53.86
2023-02-28T16:39:50.970Z,53.82
2023-02-28T16:44:54.258Z,54.02
2023-02-28T16:49:55.769Z,54.04
2023-02-28T16:54:57.341Z,54.72
2023-02-28T16:59:58.808Z,55.11
2023-02-28T17:05:00.292Z,54.55
2023-02-28T17:10:09.445Z,54.93
2023-02-28T17:15:16.532Z,55.86
2023-02-28T17:20:23.390Z,55.60
2023-02-28T17:25:25.605Z,55.72
2023-02-28T17:30:30.898Z,56.27
2023-02-28T17:35:32.477Z,56.63
2023-02-28T17:40:34.871Z,56.52
2023-02-28T17:45:36.979Z,56.75
2023-02-28T17:50:38.429Z,57.37
2023-02-28T17:55:41.202Z,57.60
2023-02-28T18:00:43.277Z,57.36
2023-02-28T18:05:45.560Z,57.94
2023-02-28T18:10:47.442Z,58.20
2023-02-28T18:15:49.295Z,58.46
2023-02-28T18:20:53.146Z,58.49
2023-02-28T18:25:54.731Z,58.58
2023-02-28T18:30:56.319Z,59.17
2023-02-28T18:35:57.948Z,59.33
2023-02-28T18:41:02.346Z,59.11
2023-02-28T18:46:10.017Z,59.38
2023-02-28T18:51:17.477Z,59.97
2023-02-28T18:56:23.850Z,59.60
2023-02-28T19:01:32.140Z,59.83
2023-02-28T19:06:35.385Z,59.94
2023-02-28T19:11:37.004Z,60.50
2023-02-28T19:16:38.862Z,60.69
2023-02-28T19:21:43.017Z,60.43
2023-02-28T19:26:44.515Z,61.27
2023-02-28T19:31:46.187Z,61.38
2023-02-28T19:36:48.386Z,61.66
2023-02-28T19:41:49.973Z,61.22
2023-02-28T19:46:51.874Z,61.57
2023-02-28T19:51:53.362Z,61.59
2023-02-28T19:56:57.607Z,62.41
2023-02-28T20:01:59.062Z,62.37
2023-02-28T20:07:00.512Z,62.50
2023-02-28T20:12:05.234Z,62.32
2023-02-28T20:17:08.868Z,63.23
2023-02-28T20:22:10.391Z,62.92
2023-02-28T20:27:12.901Z,63.08
2023-02-28T20:32:15.057Z,62.97
2023-02-28T20:37:16.571Z,63.27
2023-02-28T20:42:18.698Z,63.29
2023-02-28T20:47:20.260Z,63.25
2023-02-28T20:52:22.006Z,63.67
2023-02-28T20:57:23.451Z,64.25
2023-02-28T21:02:25.066Z,64.17
2023-02-28T21:07:28.294Z,64.20
2023-02-28T21:12:29.717Z,63.99
2023-02-28T21:17:31.202Z,63.93
2023-02-28T21:22:32.622Z,64.51
2023-02-28T21:27:35.029Z,64.34
2023-02-28T21:32:37.106Z,64.73
2023-02-28T21:37:38.819Z,64.84
2023-02-28T21:42:40.349Z,64.79
2023-02-28T21:47:42.169Z,65.02
2023-02-28T21:52:45.186Z,65.86
2023-02-28T21:57:46.865Z,65.69
2023-02-28T22:02:49.239Z,65.45
2023-02-28T22:07:50.923Z,66.11
2023-02-28T22:12:52.622Z,66.18
2023-02-28T22:17:54.814Z,65.95
2023-02-28T22:22:56.379Z,66.86
2023-02-28T22:27:58.204Z,66.86
2023-02-28T22:32:59.835Z,66.94
2023-02-28T22:38:01.288Z,66.39
2023-02-28T22:43:03.330Z,66.48
2023-02-28T22:48:06.989Z,67.50
2023-02-28T22:53:08.435Z,67.14
2023-02-28T22:58:10.255Z,67.03
2023-02-28T23:03:11.668Z,67.72
2023-02-28T23:08:13.256Z,67.36
2023-02-28T23:13:14.821Z,67.35
2023-02-28T23:18:16.336Z,67.56
2023-02-28T23:23:17.791Z,67.65
2023-02-28T23:28:19.469Z,68.17
2023-02-28T23:33:20.877Z,67.59
2023-02-28T23:38:22.511Z,67.82
2023-02-28T23:43:24.128Z,68.15
2023-02-28T23:48:25.568Z,68.50
2023-02-28T23:53:30.781Z,69.29
2023-02-28T23:58:32.823Z,68.76
